Mijn Webcam  Mijn Webcam


webcam richting noord-oost  webcam facing north-east


Regen radar Meer informatie rain snow radar


Bezoek onze andere website:

Template documentation
and downloads

HWS Template - cumulus versie

HWS Template - WU versie

And another site



METAR rapporten vliegvelden

   
EHGG - Groningen/Eelde, Netherlands
Afstand tot: Z 20 km
Gewijzigd: 18-09-2019 16:25
Gedeeltelijk bewolkt  
Gedeeltelijk bewolkt  
   Wind: NNW 20.4 km/h
Wind: NNW 20.4 km/h
Temperatuur: 15°C
Dauwpunt: 6°C
Vochtigheid: 55%
Barometer: 1026 hPa
Bewolking: Gedeeltelijk bewolkt
Zicht: meer dan 10 km
Bewolking: Licht bewolkt 1066.8 m,
Gedeeltelijk bewolkt 1280.2 m
EHGG 181425Z AUTO 33011KT 280V020 9999 FEW035 SCT042 15/06 Q1026 NOSIG
EHMA - Awg-1 Sea, Netherlands
Afstand tot: WNW 45 km
Gewijzigd: 18-09-2019 16:25
Licht bewolkt  
Licht bewolkt  
   Wind: Noorden 31.5 km/h
Wind: Noorden 31.5 km/h
Temperatuur: 13°C
Dauwpunt: 8°C
Vochtigheid: 72%
Barometer: 1027 hPa
Bewolking: Licht bewolkt
Zicht: meer dan 10 km
Bewolking: Licht bewolkt 762 m
EHMA 181425Z AUTO 35017KT 9999 FEW025 13/08 Q1027 REDZ W///H///
 

Script ontwikkeld door  Saratoga-weather.org Aangepast voor de template door  Weerstation Leuven

U vindt ons ook hier:

Het Weer Aktueel

UK Metoffice

European Weather Network

WeatherCloud

Weather Underground

Benelux Weer Netwerk

AWEKAS

WeatherlinkIP

HAMweather, WeatherForYou, PWS Weather

Apparatuur in gebruik:

Weerstation
Davis VP2

Weerprogramma
Cumulus

Davis VP2

Cumulus